Time;durP1;ratioP1;P1;durP2;ratioP2;P2;SDS_P1;SDS_P2;PMS_P1;PMS_P2;Temp;Humidity;BMP_temperature;BMP_pressure;BME280_temperature;BME280_humidity;BME280_pressure;Samples;Min_cycle;Max_cycle;Signal;HPM_P1;HPM_P2
2022/08/20 00:00:40;;;;;;;13.82;8.02;;;;;;;23.98;62.82;101462.97;5003484;28;124090;-72
2022/08/20 00:03:13;;;;;;;13.05;8.98;;;;;;;23.97;62.79;101455.00;4989709;28;121262;-72
2022/08/20 00:05:46;;;;;;;15.80;8.85;;;;;;;23.96;62.86;101458.69;5008648;28;119346;-72
2022/08/20 00:08:13;;;;;;;13.30;8.63;;;;;;;23.94;62.80;101452.56;4988917;28;123937;-72
2022/08/20 00:10:43;;;;;;;12.07;8.40;;;;;;;23.94;62.81;101455.28;4987571;28;124447;-72
2022/08/20 00:13:17;;;;;;;15.30;8.52;;;;;;;23.92;62.81;101457.25;5006672;28;120042;-72
2022/08/20 00:15:45;;;;;;;14.15;8.30;;;;;;;23.88;62.69;101457.56;4990572;28;119968;-72
2022/08/20 00:18:13;;;;;;;13.38;7.88;;;;;;;23.84;62.85;101445.28;4992271;28;123900;-73
2022/08/20 00:20:44;;;;;;;12.43;8.23;;;;;;;23.83;63.03;101443.59;4988543;28;124021;-72
2022/08/20 00:23:11;;;;;;;11.05;7.57;;;;;;;23.82;62.84;101450.00;4989193;28;119833;-73
2022/08/20 00:25:39;;;;;;;11.90;7.82;;;;;;;23.81;62.97;101456.41;4990261;28;119321;-71
2022/08/20 00:28:07;;;;;;;10.20;7.30;;;;;;;23.81;62.90;101460.94;4989742;28;124848;-73
2022/08/20 00:30:35;;;;;;;11.57;7.05;;;;;;;23.79;62.73;101458.41;4996981;28;124473;-72
2022/08/20 00:33:11;;;;;;;9.65;6.90;;;;;;;23.77;62.65;101465.78;4998891;28;118942;-72
2022/08/20 00:35:42;;;;;;;11.30;7.20;;;;;;;23.74;62.65;101459.78;4999511;28;118678;-72
2022/08/20 00:38:09;;;;;;;10.45;7.32;;;;;;;23.71;62.56;101466.31;5001337;28;124414;-72
2022/08/20 00:40:41;;;;;;;10.15;6.40;;;;;;;23.67;62.77;101464.88;4970213;28;123550;-71
2022/08/20 00:43:23;;;;;;;8.07;6.32;;;;;;;23.64;62.57;101465.16;4992977;28;119106;-71
2022/08/20 00:45:54;;;;;;;10.32;6.93;;;;;;;23.63;62.64;101463.47;5007177;28;118837;-71
2022/08/20 00:48:24;;;;;;;10.02;6.20;;;;;;;23.62;62.65;101456.31;4993668;28;123772;-71
2022/08/20 00:50:55;;;;;;;11.50;6.43;;;;;;;23.61;62.93;101460.03;5010190;28;124047;-71
2022/08/20 00:53:25;;;;;;;9.70;6.43;;;;;;;23.59;62.44;101456.63;5001173;28;121758;-71
2022/08/20 00:55:52;;;;;;;11.30;6.70;;;;;;;23.58;62.51;101465.72;4998599;28;120752;-70
2022/08/20 00:58:20;;;;;;;9.52;6.57;;;;;;;23.57;62.64;101461.31;4998687;28;124445;-72
2022/08/20 01:00:48;;;;;;;8.43;6.35;;;;;;;23.54;62.53;101457.03;4994350;28;123755;-72
2022/08/20 01:03:19;;;;;;;11.43;6.63;;;;;;;23.49;62.50;101451.22;4992187;28;119469;-72
2022/08/20 01:05:49;;;;;;;10.57;6.55;;;;;;;23.45;62.63;101450.63;4998390;28;118564;-72
2022/08/20 01:08:20;;;;;;;10.18;6.57;;;;;;;23.43;62.67;101458.03;4996448;28;123213;-72
2022/08/20 01:10:49;;;;;;;11.75;7.45;;;;;;;23.42;62.94;101456.28;4994337;28;123747;-72
2022/08/20 01:13:20;;;;;;;10.83;7.27;;;;;;;23.40;62.82;101462.84;4958929;28;1192166;-72
2022/08/20 01:15:52;;;;;;;12.70;7.88;;;;;;;23.41;62.89;101453.72;5001912;28;119234;-72
2022/08/20 01:18:24;;;;;;;14.93;8.30;;;;;;;23.40;63.09;101461.00;4998515;28;123306;-72
2022/08/20 01:21:01;;;;;;;11.88;8.00;;;;;;;23.38;62.96;101454.88;4995149;28;124588;-72
2022/08/20 01:23:46;;;;;;;12.20;7.95;;;;;;;23.34;63.24;101458.84;4996714;28;119781;-71
2022/08/20 01:26:23;;;;;;;12.73;7.97;;;;;;;23.34;63.14;101464.25;4991635;28;119199;-71
2022/08/20 01:29:00;;;;;;;13.15;8.18;;;;;;;23.33;63.42;101473.34;4995050;28;122823;-72
2022/08/20 01:31:30;;;;;;;11.45;8.13;;;;;;;23.32;63.41;101466.25;4991283;28;123746;-72
2022/08/20 01:34:00;;;;;;;13.25;8.10;;;;;;;23.33;63.56;101467.94;5009250;28;120396;-71
2022/08/20 01:36:33;;;;;;;12.38;8.27;;;;;;;23.33;63.50;101467.94;4990862;28;118200;-71
2022/08/20 01:39:00;;;;;;;11.52;8.23;;;;;;;23.35;63.43;101460.53;4996215;28;123554;-71
2022/08/20 01:41:54;;;;;;;13.40;8.07;;;;;;;23.35;63.54;101457.84;5006794;28;123674;-72
2022/08/20 01:44:22;;;;;;;16.05;8.20;;;;;;;23.36;63.47;101448.75;5015427;28;119091;-72
2022/08/20 01:46:54;;;;;;;10.80;7.80;;;;;;;23.38;63.52;101451.31;4997244;28;120354;-72
2022/08/20 01:49:33;;;;;;;12.75;8.20;;;;;;;23.39;63.38;101445.75;4990434;28;122958;-72
2022/08/20 01:52:06;;;;;;;13.60;8.65;;;;;;;23.41;63.65;101454.56;4993257;28;123481;-72
2022/08/20 01:54:34;;;;;;;14.00;9.02;;;;;;;23.43;63.38;101452.63;4996260;28;119377;-72
2022/08/20 01:57:09;;;;;;;13.82;8.95;;;;;;;23.42;63.50;101459.00;4992418;28;119615;-72
2022/08/20 01:59:36;;;;;;;;;;;;;;;23.38;63.19;101465.69;4987386;28;124200;-72
2022/08/20 02:02:05;;;;;;;11.50;7.97;;;;;;;23.41;63.32;101454.56;4983821;28;124232;-72
2022/08/20 02:04:33;;;;;;;13.77;9.20;;;;;;;23.40;63.32;101458.28;4987552;28;119462;-72
2022/08/20 02:07:03;;;;;;;14.05;8.38;;;;;;;23.41;63.38;101459.97;5002652;28;118243;-72
2022/08/20 02:09:34;;;;;;;13.07;8.18;;;;;;;23.42;63.44;101461.69;4992894;28;123874;-72
2022/08/20 02:12:04;;;;;;;12.90;8.90;;;;;;;23.41;63.43;101459.97;4987115;28;123881;-72
2022/08/20 02:14:33;;;;;;;11.18;8.38;;;;;;;23.42;63.39;101450.88;4992212;28;120486;-73
2022/08/20 02:17:00;;;;;;;12.52;7.93;;;;;;;23.42;63.27;101450.88;4986348;28;119011;-72
2022/08/20 02:19:37;;;;;;;13.55;8.57;;;;;;;23.42;63.45;101450.03;4989268;28;123992;-73
2022/08/20 02:22:15;;;;;;;11.82;7.60;;;;;;;23.43;63.41;101463.44;4991573;28;125345;-73
2022/08/20 02:24:43;;;;;;;12.00;8.40;;;;;;;23.42;63.29;101467.09;4990732;28;120313;-72
2022/08/20 02:27:10;;;;;;;11.35;8.05;;;;;;;23.42;63.45;101461.69;4988693;28;119846;-73
2022/08/20 02:29:37;;;;;;;12.82;8.77;;;;;;;23.43;63.33;101462.56;4988466;28;124826;-73
2022/08/20 02:32:07;;;;;;;13.20;8.90;;;;;;;23.43;63.69;101449.91;4988020;28;122959;-72
2022/08/20 02:34:54;;;;;;;11.75;7.80;;;;;;;23.43;63.43;101454.44;4984280;28;120050;-73
2022/08/20 02:37:21;;;;;;;13.00;8.18;;;;;;;23.41;63.46;101462.69;4988409;28;121045;-73
2022/08/20 02:39:48;;;;;;;13.45;9.05;;;;;;;23.41;63.49;101459.97;4997124;28;123690;-73
2022/08/20 02:42:16;;;;;;;11.60;8.50;;;;;;;23.42;63.64;101464.41;4990650;28;123750;-72
2022/08/20 02:44:43;;;;;;;13.75;8.45;;;;;;;23.41;63.57;101465.38;5000456;28;119396;-73
2022/08/20 02:47:10;;;;;;;13.02;8.55;;;;;;;23.40;63.82;101461.00;4989164;28;118976;-73
2022/08/20 02:49:37;;;;;;;12.57;7.97;;;;;;;23.39;63.70;101455.72;4984450;28;124691;-73
2022/08/20 02:52:04;;;;;;;13.40;8.48;;;;;;;23.39;63.68;101455.72;4988390;28;122473;-73
2022/08/20 02:54:32;;;;;;;12.18;8.35;;;;;;;23.38;63.73;101471.09;4992130;28;119181;-73
2022/08/20 02:56:59;;;;;;;11.13;8.27;;;;;;;23.37;63.81;101469.38;5005555;28;119279;-73
2022/08/20 02:59:26;;;;;;;11.43;8.05;;;;;;;23.38;63.80;101471.09;4989435;28;124090;-73
2022/08/20 03:01:53;;;;;;;11.98;8.73;;;;;;;23.39;63.68;101466.53;4993788;28;124737;-72
2022/08/20 03:04:28;;;;;;;12.35;8.45;;;;;;;23.38;63.80;101459.44;4990622;28;119908;-73
2022/08/20 03:06:56;;;;;;;13.43;8.85;;;;;;;23.37;64.07;101453.13;4989899;28;118789;-73
2022/08/20 03:09:23;;;;;;;13.02;8.43;;;;;;;23.37;64.07;101453.13;4993536;28;124014;-73
2022/08/20 03:11:51;;;;;;;13.98;8.90;;;;;;;23.36;63.95;101461.38;4991835;28;123824;-73
2022/08/20 03:14:18;;;;;;;12.30;7.88;;;;;;;23.35;63.87;101460.53;5004710;28;118522;-73
2022/08/20 03:16:46;;;;;;;13.20;8.55;;;;;;;23.35;64.08;101459.69;4988651;28;118610;-73
2022/08/20 03:19:13;;;;;;;14.23;8.85;;;;;;;23.34;64.00;101450.72;4991783;28;123025;-73
2022/08/20 03:21:40;;;;;;;13.15;8.82;;;;;;;23.36;64.06;101456.84;4990626;28;124319;-72
2022/08/20 03:24:08;;;;;;;12.55;8.93;;;;;;;23.35;64.07;101457.84;4989032;28;120115;-73
2022/08/20 03:26:36;;;;;;;11.20;8.57;;;;;;;23.36;64.12;101456.84;4990281;28;121233;-73
2022/08/20 03:29:03;;;;;;;11.88;8.95;;;;;;;23.37;64.19;101463.97;5001509;28;123461;-73
2022/08/20 03:31:30;;;;;;;14.43;9.68;;;;;;;23.39;64.01;101467.38;5006255;28;124073;-73
2022/08/20 03:33:57;;;;;;;11.27;8.70;;;;;;;23.39;64.04;101471.94;5005799;28;118276;-73
2022/08/20 03:36:27;;;;;;;13.15;9.40;;;;;;;23.40;64.26;101470.97;4995491;28;120356;-72
2022/08/20 03:38:57;;;;;;;14.63;9.23;;;;;;;23.39;64.07;101461.97;4997807;28;123771;-72
2022/08/20 03:41:25;;;;;;;12.63;9.38;;;;;;;23.40;64.15;101458.28;5007308;28;126036;-73
2022/08/20 03:43:52;;;;;;;15.75;10.18;;;;;;;23.41;64.11;101453.72;4997376;28;118677;-72
2022/08/20 03:46:19;;;;;;;13.35;9.88;;;;;;;23.40;64.12;101458.28;4992981;28;119587;-73
2022/08/20 03:48:51;;;;;;;14.60;10.10;;;;;;;23.41;64.13;101454.56;4994726;28;122955;-73
2022/08/20 03:51:29;;;;;;;14.48;10.23;;;;;;;23.40;64.03;101452.88;4997794;28;124579;-73
2022/08/20 03:53:56;;;;;;;13.93;10.15;;;;;;;23.40;64.11;101469.09;4989660;28;119231;-73
2022/08/20 03:56:24;;;;;;;16.08;10.75;;;;;;;23.40;64.13;101465.56;4993574;28;119182;-73
2022/08/20 03:58:51;;;;;;;16.73;10.35;;;;;;;23.38;64.07;101459.44;5002162;28;125017;-73
2022/08/20 04:01:19;;;;;;;13.48;10.20;;;;;;;23.37;64.15;101463.97;4995209;28;123649;-72
2022/08/20 04:04:06;;;;;;;16.02;10.25;;;;;;;23.38;64.24;101471.09;4994412;28;119669;-72
2022/08/20 04:06:39;;;;;;;14.13;10.20;;;;;;;23.38;64.17;101465.69;4991664;28;118750;-73
2022/08/20 04:09:09;;;;;;;13.63;9.85;;;;;;;23.37;64.31;101474.78;5012514;28;124453;-73
2022/08/20 04:11:40;;;;;;;16.27;10.82;;;;;;;23.38;64.20;101471.09;4993733;28;124852;-73
2022/08/20 04:14:07;;;;;;;15.52;10.38;;;;;;;23.38;64.25;101476.50;4991631;28;119948;-72
2022/08/20 04:16:38;;;;;;;16.65;11.00;;;;;;;23.38;64.36;101481.91;4997856;28;120664;-73
2022/08/20 04:19:06;;;;;;;14.77;10.52;;;;;;;23.37;64.14;101479.31;4993826;28;124342;-73
2022/08/20 04:21:34;;;;;;;19.17;12.10;;;;;;;23.35;64.00;101482.16;4993114;28;123688;-73
2022/08/20 04:24:03;;;;;;;17.42;11.95;;;;;;;23.33;64.05;101484.16;5005451;27;118958;-73
2022/08/20 04:26:33;;;;;;;17.83;12.52;;;;;;;23.31;64.15;101480.72;4997146;28;119337;-72
2022/08/20 04:29:00;;;;;;;17.92;11.70;;;;;;;23.27;64.27;101480.16;4992819;28;123828;-72
2022/08/20 04:31:31;;;;;;;19.15;12.52;;;;;;;23.23;64.08;101489.53;4987159;28;123986;-71
2022/08/20 04:34:00;;;;;;;19.50;12.02;;;;;;;23.21;64.19;101486.09;4983316;28;120041;-72
2022/08/20 04:36:28;;;;;;;17.65;11.80;;;;;;;23.19;64.20;101487.22;4982887;28;119351;-72
2022/08/20 04:38:55;;;;;;;18.17;11.65;;;;;;;23.18;64.22;101485.50;4989545;28;124476;-73
2022/08/20 04:41:22;;;;;;;17.85;11.93;;;;;;;23.17;64.23;101494.59;4985485;28;124002;-72
2022/08/20 04:43:52;;;;;;;16.83;11.57;;;;;;;23.15;64.23;101496.59;4988937;28;120216;-72
2022/08/20 04:46:24;;;;;;;18.33;12.25;;;;;;;23.15;64.19;101502.00;5004233;28;118755;-73
2022/08/20 04:48:52;;;;;;;19.13;12.35;;;;;;;23.13;64.52;101511.09;4988856;28;124174;-73
2022/08/20 04:51:20;;;;;;;18.45;12.63;;;;;;;23.13;64.42;101505.69;5000828;28;123616;-72
2022/08/20 04:53:52;;;;;;;18.67;12.02;;;;;;;23.13;64.37;101505.69;5005569;28;118521;-72
2022/08/20 04:56:24;;;;;;;20.90;12.05;;;;;;;23.14;64.43;101520.06;4987136;28;120014;-72
2022/08/20 04:58:54;;;;;;;18.90;12.35;;;;;;;23.13;64.51;101527.31;5018611;28;124113;-73
2022/08/20 05:01:22;;;;;;;17.95;11.63;;;;;;;23.13;64.44;101527.31;4990851;28;123866;-72
2022/08/20 05:03:53;;;;;;;21.05;12.82;;;;;;;23.15;64.53;101527.19;5002910;28;119604;-73
2022/08/20 05:06:24;;;;;;;21.33;12.50;;;;;;;23.16;64.46;101525.34;4983994;28;119724;-73
2022/08/20 05:08:53;;;;;;;25.02;14.30;;;;;;;23.16;64.68;101525.34;5000743;28;124331;-73
2022/08/20 05:11:21;;;;;;;25.35;14.63;;;;;;;23.16;64.50;101530.75;4999681;28;123648;-71
2022/08/20 05:14:05;;;;;;;23.95;14.88;;;;;;;23.13;64.54;101527.31;5004843;28;120175;-72
2022/08/20 05:16:39;;;;;;;27.30;14.80;;;;;;;23.13;64.67;101526.44;4990038;28;119080;-72
2022/08/20 05:19:10;;;;;;;26.85;15.18;;;;;;;23.13;64.56;101538.13;4995305;28;123801;-73
2022/08/20 05:21:38;;;;;;;24.33;15.38;;;;;;;23.12;64.52;101531.00;4984366;28;124007;-72
2022/08/20 05:24:05;;;;;;;26.92;16.00;;;;;;;23.13;64.57;101532.72;4991613;28;119334;-73
2022/08/20 05:26:33;;;;;;;24.63;15.02;;;;;;;23.13;64.65;101534.53;4991827;28;119058;-72
2022/08/20 05:29:03;;;;;;;30.25;16.77;;;;;;;23.13;64.59;101543.53;4992829;28;123517;-73
2022/08/20 05:31:31;;;;;;;24.55;16.15;;;;;;;23.11;64.52;101540.13;4986811;28;125486;-72
2022/08/20 05:34:08;;;;;;;30.58;17.50;;;;;;;23.09;64.64;101536.69;4993895;28;119185;-72
2022/08/20 05:36:46;;;;;;;29.58;17.33;;;;;;;23.07;64.66;101537.78;4989214;28;119191;-72
2022/08/20 05:39:17;;;;;;;34.63;19.10;;;;;;;23.06;64.68;101536.94;4991619;28;123520;-72
2022/08/20 05:41:44;;;;;;;33.03;18.80;;;;;;;23.06;64.73;101536.94;4987900;28;124002;-73
2022/08/20 05:44:14;;;;;;;30.85;18.88;;;;;;;23.04;64.90;101541.63;4988860;28;119233;-73
2022/08/20 05:46:44;;;;;;;38.20;18.70;;;;;;;23.03;64.93;101542.59;4991185;28;118734;-73
2022/08/20 05:49:18;;;;;;;34.28;19.75;;;;;;;23.04;64.88;101536.22;4987889;28;123824;-72
2022/08/20 05:51:47;;;;;;;37.75;20.13;;;;;;;23.06;64.96;101542.34;4985655;28;123974;-73
2022/08/20 05:54:14;;;;;;;39.63;21.25;;;;;;;23.05;64.87;101546.03;4993926;28;120508;-73
2022/08/20 05:56:42;;;;;;;32.67;20.15;;;;;;;23.04;64.71;101544.34;4998094;28;119850;-73
2022/08/20 05:59:11;;;;;;;37.58;21.25;;;;;;;23.06;65.00;101547.75;4987929;28;123894;-72
2022/08/20 06:01:39;;;;;;;33.75;21.25;;;;;;;23.05;64.90;101548.72;4982090;28;124356;-73
2022/08/20 06:04:23;;;;;;;35.00;21.73;;;;;;;23.07;64.96;101554.84;4988785;28;119699;-72
2022/08/20 06:06:52;;;;;;;35.15;20.95;;;;;;;23.08;64.96;101551.19;4990248;28;118465;-73
2022/08/20 06:09:22;;;;;;;40.28;22.10;;;;;;;23.10;65.01;101548.34;5004511;28;123341;-73
2022/08/20 06:11:59;;;;;;;37.58;21.52;;;;;;;23.11;64.90;101550.91;4987932;28;124041;-73
2022/08/20 06:14:26;;;;;;;35.53;20.83;;;;;;;23.11;64.96;101545.53;4990465;28;118643;-73
2022/08/20 06:16:53;;;;;;;36.83;21.67;;;;;;;23.13;64.61;101554.34;4985987;28;118880;-73
2022/08/20 06:19:25;;;;;;;38.75;21.27;;;;;;;23.17;64.81;101554.06;5002713;28;123445;-73
2022/08/20 06:21:53;;;;;;;37.10;22.00;;;;;;;23.17;64.80;101554.06;4990093;28;124073;-72
2022/08/20 06:24:20;;;;;;;42.08;22.90;;;;;;;23.17;64.43;101548.66;4992442;28;119247;-73
2022/08/20 06:26:54;;;;;;;35.65;21.80;;;;;;;23.15;64.50;101556.03;4993580;28;118081;-73
2022/08/20 06:29:21;;;;;;;37.75;22.65;;;;;;;23.12;64.32;101552.63;4990220;28;123746;-73
2022/08/20 06:31:49;;;;;;;35.47;22.10;;;;;;;23.11;64.39;101559.03;4987093;28;124170;-72
2022/08/20 06:34:17;;;;;;;40.20;22.85;;;;;;;23.09;64.40;101561.00;4985137;28;118580;-73
2022/08/20 06:36:45;;;;;;;34.33;21.65;;;;;;;23.10;64.57;101570.81;4991626;28;119102;-72
2022/08/20 06:39:13;;;;;;;37.25;21.73;;;;;;;23.10;64.53;101565.41;4987700;28;124949;-72
2022/08/20 06:41:42;;;;;;;36.58;22.63;;;;;;;23.11;64.40;101567.13;4991833;28;124401;-72
2022/08/20 06:44:09;;;;;;;33.80;21.42;;;;;;;23.12;64.42;101563.44;4996955;28;120091;-72
2022/08/20 06:46:37;;;;;;;33.63;21.67;;;;;;;23.12;64.37;101563.44;4992522;28;119710;-73
2022/08/20 06:49:06;;;;;;;34.60;21.83;;;;;;;23.13;64.42;101565.16;4985690;28;124562;-73
2022/08/20 06:51:34;;;;;;;35.67;21.40;;;;;;;23.12;64.56;101560.72;4990940;28;122118;-74
2022/08/20 06:54:01;;;;;;;31.90;20.98;;;;;;;23.13;64.42;101559.75;4990013;28;120165;-74
2022/08/20 06:56:28;;;;;;;34.33;21.25;;;;;;;23.13;64.45;101554.34;4999269;28;118659;-74
2022/08/20 06:58:55;;;;;;;32.65;20.58;;;;;;;23.15;64.64;101556.03;4984395;28;124097;-74
2022/08/20 07:01:23;;;;;;;31.52;20.52;;;;;;;23.17;64.79;101559.47;4986400;28;125120;-74
2022/08/20 07:03:50;;;;;;;31.13;20.30;;;;;;;23.20;64.75;101559.22;4985229;28;119875;-74
2022/08/20 07:06:26;;;;;;;31.92;20.17;;;;;;;23.25;64.65;101563.22;4999546;28;118603;-73
2022/08/20 07:08:54;;;;;;;31.13;18.30;;;;;;;23.28;64.67;101567.47;4985566;28;124419;-74
2022/08/20 07:11:21;;;;;;;29.40;19.45;;;;;;;23.33;64.69;101570.66;5005479;28;123223;-74
2022/08/20 07:13:57;;;;;;;30.88;19.80;;;;;;;23.36;64.51;101575.81;5005952;28;117668;-74
2022/08/20 07:16:25;;;;;;;32.08;19.15;;;;;;;23.38;64.32;101573.81;4992825;28;119290;-74
2022/08/20 07:18:52;;;;;;;31.17;18.60;;;;;;;23.40;64.36;101576.38;4992850;28;123850;-74
2022/08/20 07:21:19;;;;;;;35.00;20.13;;;;;;;23.44;64.35;101578.66;4997858;28;123613;-73
2022/08/20 07:23:48;;;;;;;32.03;19.40;;;;;;;23.50;64.46;101577.28;4989048;28;119643;-74
2022/08/20 07:26:16;;;;;;;31.38;18.92;;;;;;;23.56;64.19;101575.88;4991280;28;118877;-73
2022/08/20 07:28:44;;;;;;;30.67;19.30;;;;;;;23.59;64.17;101581.03;4992616;28;123639;-74
2022/08/20 07:34:01;;;;;;;30.08;19.20;;;;;;;23.63;63.82;101579.75;4992332;28;119475;-74
2022/08/20 07:36:29;;;;;;;27.75;19.20;;;;;;;23.63;63.96;101593.28;4990206;28;121628;-74
2022/08/20 07:38:57;;;;;;;29.90;18.88;;;;;;;23.65;63.92;101585.88;4989696;28;124321;-74
2022/08/20 07:41:24;;;;;;;28.30;18.27;;;;;;;23.68;63.72;101591.03;4989893;28;123623;-73
2022/08/20 07:43:51;;;;;;;27.40;17.52;;;;;;;23.71;63.79;101596.16;4992349;28;119342;-74
2022/08/20 07:46:20;;;;;;;27.75;18.17;;;;;;;23.73;63.53;101596.88;5009005;28;119515;-73
2022/08/20 07:48:48;;;;;;;27.80;17.33;;;;;;;23.74;63.67;101598.59;5002612;28;123968;-73
2022/08/20 07:51:18;;;;;;;28.25;17.70;;;;;;;23.79;63.95;101582.84;5023386;28;124007;-74
2022/08/20 07:53:47;;;;;;;26.30;17.80;;;;;;;23.90;63.97;101589.97;5007719;28;119576;-74
2022/08/20 07:56:18;;;;;;;25.85;17.38;;;;;;;23.99;63.88;101599.13;4995746;28;118891;-73
2022/08/20 07:58:49;;;;;;;24.67;15.75;;;;;;;24.10;63.70;101599.00;4985733;28;125725;-74
2022/08/20 08:01:19;;;;;;;26.95;17.08;;;;;;;24.19;63.48;101600.88;4994331;28;123525;-74
2022/08/20 08:03:46;;;;;;;25.42;16.23;;;;;;;24.26;63.48;101602.03;4993200;28;119281;-74
2022/08/20 08:06:19;;;;;;;24.80;15.48;;;;;;;24.33;63.07;101604.19;5010285;28;118399;-74
2022/08/20 08:09:10;;;;;;;27.58;15.40;;;;;;;24.38;63.04;101607.31;4985006;28;123544;-74
2022/08/20 08:11:40;;;;;;;21.80;15.40;;;;;;;24.45;62.84;101603.06;4985957;28;124045;-74
2022/08/20 08:14:20;;;;;;;20.60;15.05;;;;;;;24.52;62.62;101606.94;4993275;28;118860;-74
2022/08/20 08:16:47;;;;;;;22.42;15.43;;;;;;;24.60;62.64;101608.91;4989280;28;117933;-74
2022/08/20 08:19:16;;;;;;;22.48;15.15;;;;;;;24.68;62.50;101607.22;4999545;28;124481;-74
2022/08/20 08:21:44;;;;;;;20.48;14.15;;;;;;;24.74;62.18;101600.38;5001998;28;125150;-74
2022/08/20 08:24:11;;;;;;;21.52;14.90;;;;;;;24.79;61.93;101602.66;4988113;28;120582;-74
2022/08/20 08:26:48;;;;;;;22.52;16.52;;;;;;;24.83;61.82;101599.53;4996201;28;119896;-74
2022/08/20 08:29:16;;;;;;;19.83;14.07;;;;;;;24.95;61.53;101602.91;4996787;28;125386;-74
2022/08/20 08:31:43;;;;;;;25.10;16.38;;;;;;;25.09;61.83;101603.47;4999039;28;123580;-74
2022/08/20 08:34:10;;;;;;;25.20;15.40;;;;;;;25.28;61.77;101602.59;5000822;28;119999;-74
2022/08/20 08:36:38;;;;;;;20.38;14.35;;;;;;;25.43;61.47;101607.41;5011351;28;118704;-74
2022/08/20 08:39:06;;;;;;;15.20;11.27;;;;;;;25.58;60.65;101601.50;4997325;28;124480;-73
2022/08/20 08:41:47;;;;;;;15.88;11.25;;;;;;;25.72;60.23;101611.88;5000745;28;123248;-75
2022/08/20 08:44:25;;;;;;;10.27;7.00;;;;;;;25.81;59.22;101610.97;5005190;28;119270;-74
2022/08/20 08:47:01;;;;;;;9.07;6.55;;;;;;;25.90;58.52;101613.78;5014326;28;118661;-74
2022/08/20 08:49:32;;;;;;;10.43;6.80;;;;;;;26.01;58.28;101608.19;5003664;28;123665;-74
2022/08/20 08:52:10;;;;;;;11.15;6.13;;;;;;;26.08;57.35;101617.44;5000548;28;123847;-75
2022/08/20 08:54:44;;;;;;;7.80;5.70;;;;;;;26.16;57.37;101620.25;4992034;28;117948;-74
2022/08/20 08:57:11;;;;;;;6.57;4.93;;;;;;;26.22;57.01;101625.06;5004593;28;119071;-74
2022/08/20 08:59:39;;;;;;;7.30;5.13;;;;;;;26.29;56.42;101624.44;5007384;28;124593;-74
2022/08/20 09:02:29;;;;;;;9.57;5.20;;;;;;;26.35;56.03;101621.13;5003548;28;123793;-74
2022/08/20 09:05:00;;;;;;;9.65;4.85;;;;;;;26.35;55.22;101629.25;4993368;28;119059;-74
2022/08/20 09:07:32;;;;;;;7.40;4.68;;;;;;;26.30;54.90;101629.72;5004728;28;118964;-74
2022/08/20 09:10:00;;;;;;;7.50;3.78;;;;;;;26.24;54.63;101635.78;5004719;28;123432;-74
2022/08/20 09:12:27;;;;;;;10.20;4.43;;;;;;;26.18;54.33;101639.97;5005233;28;122258;-74
2022/08/20 09:14:54;;;;;;;6.07;4.30;;;;;;;26.10;54.35;101631.72;4986046;28;120059;-74
2022/08/20 09:17:22;;;;;;;7.00;4.10;;;;;;;26.11;54.27;101633.44;4984874;28;119938;-74
2022/08/20 09:19:51;;;;;;;7.15;4.00;;;;;;;26.17;54.55;101632.81;5014889;28;124323;-74
2022/08/20 09:22:20;;;;;;;4.82;3.47;;;;;;;26.26;54.36;101635.59;4996494;28;123846;-74
2022/08/20 09:24:49;;;;;;;6.75;3.67;;;;;;;26.35;53.91;101634.69;5006493;28;120274;-74
2022/08/20 09:27:16;;;;;;;5.97;3.35;;;;;;;26.39;53.16;101641.53;5004960;28;119473;-74
2022/08/20 09:29:43;;;;;;;5.88;2.83;;;;;;;26.38;52.80;101635.25;5005439;28;123462;-74
2022/08/20 09:32:17;;;;;;;6.40;2.85;;;;;;;26.35;52.04;101641.00;4992283;28;123773;-74
2022/08/20 09:34:50;;;;;;;5.47;3.00;;;;;;;26.35;51.79;101632.84;5005832;28;120020;-74
2022/08/20 09:37:18;;;;;;;7.70;2.83;;;;;;;26.40;52.22;101637.81;5003486;28;119091;-74
2022/08/20 09:39:46;;;;;;;5.55;2.92;;;;;;;26.51;51.97;101634.88;5003897;28;122781;-74
2022/08/20 09:42:23;;;;;;;7.57;4.22;;;;;;;26.55;51.62;101636.25;5004282;28;123474;-74
2022/08/20 09:44:51;;;;;;;8.02;4.72;;;;;;;26.50;51.49;101638.59;5005473;28;119165;-74
2022/08/20 09:47:18;;;;;;;6.50;4.88;;;;;;;26.44;51.35;101632.94;5004746;28;118284;-74
2022/08/20 09:49:46;;;;;;;9.43;4.68;;;;;;;26.42;51.63;101625.78;5004378;28;123848;-74
2022/08/20 09:52:22;;;;;;;6.88;4.25;;;;;;;26.51;51.70;101624.00;4989526;28;123376;-73
2022/08/20 09:54:53;;;;;;;6.22;3.47;;;;;;;26.65;51.68;101624.50;5005165;28;118926;-74
2022/08/20 09:57:21;;;;;;;7.95;3.80;;;;;;;26.79;51.53;101632.13;5004577;28;119571;-74
2022/08/20 09:59:55;;;;;;;9.55;3.40;;;;;;;26.89;50.48;101627.44;5021498;28;123857;-74
2022/08/20 10:02:23;;;;;;;8.68;3.28;;;;;;;26.93;50.20;101628.81;5004262;28;124473;-74
2022/08/20 10:04:51;;;;;;;6.35;3.30;;;;;;;26.91;49.91;101636.28;4991917;28;119979;-74
2022/08/20 10:07:18;;;;;;;6.50;2.90;;;;;;;26.88;49.38;101636.63;5004437;28;119215;-74
2022/08/20 10:09:45;;;;;;;10.27;3.40;;;;;;;26.77;49.01;101645.00;5005571;28;123786;-74
2022/08/20 10:12:12;;;;;;;7.30;2.78;;;;;;;26.71;49.31;101640.19;5005483;28;124782;-74
2022/08/20 10:14:40;;;;;;;6.57;3.13;;;;;;;26.68;49.25;101643.22;5005244;28;119683;-74
2022/08/20 10:17:07;;;;;;;7.75;3.90;;;;;;;26.66;49.46;101642.53;4995161;28;118208;-74
2022/08/20 10:19:34;;;;;;;7.60;3.80;;;;;;;26.65;49.48;101646.25;5000543;28;124577;-74
2022/08/20 10:22:02;;;;;;;5.38;3.10;;;;;;;26.68;49.79;101643.22;5003850;28;123700;-74
2022/08/20 10:24:29;;;;;;;6.80;3.03;;;;;;;26.75;49.82;101641.59;5006094;28;119813;-74
2022/08/20 10:26:58;;;;;;;5.53;2.80;;;;;;;26.82;48.79;101645.38;5005065;28;118766;-74
2022/08/20 10:29:27;;;;;;;7.22;2.30;;;;;;;26.83;48.59;101641.66;5002911;28;123011;-74
2022/08/20 10:31:55;;;;;;;6.13;3.00;;;;;;;26.80;48.58;101647.41;5002249;28;123881;-74
2022/08/20 10:34:24;;;;;;;5.93;2.78;;;;;;;26.78;48.14;101652.13;4992827;28;118603;-75
2022/08/20 10:36:51;;;;;;;6.70;2.60;;;;;;;26.82;48.19;101642.66;4991276;28;118724;-75
2022/08/20 10:39:18;;;;;;;8.15;3.20;;;;;;;26.92;48.70;101648.03;5005089;28;123042;-75
2022/08/20 10:41:45;;;;;;;5.85;2.33;;;;;;;27.07;47.56;101651.91;5006724;28;124436;-75
2022/08/20 10:44:12;;;;;;;7.35;2.28;;;;;;;27.20;46.89;101648.78;5003715;28;118801;-75
2022/08/20 10:46:40;;;;;;;7.25;2.03;;;;;;;27.31;46.92;101643.09;5001638;28;119102;-75
2022/08/20 10:49:07;;;;;;;5.72;2.25;;;;;;;27.43;46.26;101646.41;5006569;28;123690;-75
2022/08/20 10:51:34;;;;;;;5.03;1.70;;;;;;;27.52;45.81;101655.44;5009151;28;123881;-75
2022/08/20 10:54:02;;;;;;;5.97;1.80;;;;;;;27.54;45.10;101653.44;5023673;28;120233;-75
2022/08/20 10:56:38;;;;;;;9.40;2.25;;;;;;;27.49;44.83;101653.91;5005996;28;119414;-75
2022/08/20 10:59:05;;;;;;;7.75;1.90;;;;;;;27.50;44.72;101646.59;5005987;28;123152;-75
2022/08/20 11:01:32;;;;;;;3.88;2.03;;;;;;;27.55;44.63;101644.25;5008713;28;123950;-75
2022/08/20 11:04:03;;;;;;;4.22;1.60;;;;;;;27.58;43.83;101641.22;5008455;28;120595;-74
2022/08/20 11:06:30;;;;;;;4.63;1.88;;;;;;;27.57;43.82;101645.78;4992747;28;118123;-75
2022/08/20 11:08:57;;;;;;;7.90;2.05;;;;;;;27.53;43.24;101657.16;4996678;28;124840;-75
2022/08/20 11:11:25;;;;;;;6.45;1.80;;;;;;;27.45;43.07;101655.25;5002633;28;124727;-74
2022/08/20 11:13:52;;;;;;;6.93;1.88;;;;;;;27.39;43.10;101655.91;4988586;28;119571;-75
2022/08/20 11:16:19;;;;;;;6.75;1.80;;;;;;;27.40;43.13;101648.59;5004822;28;118781;-75
2022/08/20 11:18:48;;;;;;;7.15;2.28;;;;;;;27.46;43.43;101650.66;5007808;28;124228;-75
2022/08/20 11:21:15;;;;;;;5.57;2.00;;;;;;;27.58;43.83;101654.81;4994471;28;124444;-75